KVSF/VSF METAR and TAF weather

Enter ICAO airport designator
Station Type Date Time Source
KVSF METAR 2019/04/25 09:54 UTC NOAA

KVSF 250954Z AUTO 27005KT 10SM BKN030 05/02 A2991 RMK AO2 SLP130 T00500017


Station Type Date Time Source
KVSF Decoded METAR 2019/04/25 09:54 UTC NOAA

HARTNESS STATE AIRPORT, VT, United States (KVSF) 43-21N 72-31W 175M
Apr 25, 2019 - 05:54 AM EDT / 2019.04.25 0954 UTC
Wind: from the W (270 degrees) at 6 MPH (5 KT):0
Visibility: 10 mile(s):0
Sky conditions: mostly cloudy
Temperature: 41.0 F (5.0 C)
Dew Point: 35.1 F (1.7 C)
Relative Humidity: 79%
Pressure (altimeter): 29.91 in. Hg (1012 hPa)
ob: KVSF 250954Z AUTO 27005KT 10SM BKN030 05/02 A2991 RMK AO2 SLP130 T00500017
cycle: 10

Station Type Date Time Source
KVSF TAF UTC NOAA

Error!

Example: see airport list